Time;durP1;ratioP1;P1;durP2;ratioP2;P2;SDS_P1;SDS_P2;PMS_P1;PMS_P2;Temp;Humidity;BMP_temperature;BMP_pressure;BME280_temperature;BME280_humidity;BME280_pressure;Samples;Min_cycle;Max_cycle;Signal;HPM_P1;HPM_P2
2023/10/11 00:02:14;;;;;;;14.20;4.00;;;;;;;15.43;100.00;93189.75;5008690;28;20453;-83
2023/10/11 00:04:40;;;;;;;17.60;4.63;;;;;;;15.41;100.00;93190.03;5015871;28;20069;-83
2023/10/11 00:07:05;;;;;;;18.17;4.75;;;;;;;15.39;100.00;93190.31;5010870;28;20045;-82
2023/10/11 00:09:38;;;;;;;12.25;4.45;;;;;;;15.37;100.00;93191.69;5026757;28;20506;-82
2023/10/11 00:12:11;;;;;;;12.82;4.75;;;;;;;15.32;100.00;93192.59;5009708;28;20045;-83
2023/10/11 00:14:42;;;;;;;19.85;5.15;;;;;;;15.32;100.00;93197.88;5008703;28;20068;-83
2023/10/11 00:17:11;;;;;;;15.73;5.20;;;;;;;15.25;100.00;93180.91;5005998;28;20038;-81
2023/10/11 00:19:39;;;;;;;25.35;5.60;;;;;;;15.25;100.00;93194.09;5008840;28;20022;-82
2023/10/11 00:22:05;;;;;;;16.92;5.40;;;;;;;15.22;100.00;93190.19;5009609;28;20485;-81
2023/10/11 00:24:32;;;;;;;17.80;5.40;;;;;;;15.20;100.00;93187.84;5009189;28;20044;-84
2023/10/11 00:26:57;;;;;;;16.48;6.15;;;;;;;15.19;100.00;93191.53;5013729;28;20045;-82
2023/10/11 00:29:23;;;;;;;21.15;7.68;;;;;;;15.20;100.00;93192.34;5019231;28;20037;-83
2023/10/11 00:31:51;;;;;;;21.90;7.55;;;;;;;15.19;100.00;93186.25;5012373;28;20056;-83
2023/10/11 00:34:20;;;;;;;17.52;7.38;;;;;;;15.17;100.00;93190.28;5020306;28;20038;-82
2023/10/11 00:36:49;;;;;;;21.02;9.15;;;;;;;15.17;100.00;93193.69;5006119;28;20441;-83
2023/10/11 00:39:17;;;;;;;24.20;10.48;;;;;;;15.16;100.00;93189.50;5007368;28;20037;-82
2023/10/11 00:41:47;;;;;;;31.58;10.95;;;;;;;15.14;100.00;93189.03;5007252;28;20104;-83
2023/10/11 00:44:20;;;;;;;23.90;11.07;;;;;;;15.13;100.00;93190.13;5010197;28;20045;-82
2023/10/11 00:47:00;;;;;;;28.42;11.93;;;;;;;15.12;100.00;93190.41;5001888;28;20078;-82
2023/10/11 00:49:35;;;;;;;27.73;11.55;;;;;;;15.09;100.00;93189.13;5008513;28;20058;-83
2023/10/11 00:52:04;;;;;;;27.00;11.73;;;;;;;15.08;100.00;93184.16;5028001;28;20176;-81
2023/10/11 00:54:30;;;;;;;30.38;12.32;;;;;;;15.08;100.00;93192.06;5022864;28;20184;-82
2023/10/11 00:56:56;;;;;;;29.25;11.82;;;;;;;15.04;100.00;93186.63;5029138;28;20045;-82
2023/10/11 00:59:23;;;;;;;29.33;10.02;;;;;;;14.99;100.00;93187.50;5007775;28;20065;-84
2023/10/11 01:01:51;;;;;;;17.90;9.05;;;;;;;14.99;100.00;93184.06;5005803;28;20042;-82
2023/10/11 01:04:18;;;;;;;20.27;8.80;;;;;;;14.90;100.00;93175.28;5004582;28;20357;-83
2023/10/11 01:06:47;;;;;;;25.77;9.55;;;;;;;14.95;100.00;93183.09;5006056;28;20520;-82
2023/10/11 01:09:17;;;;;;;22.58;9.90;;;;;;;14.93;100.00;93182.63;5025242;28;20018;-82
2023/10/11 01:11:43;;;;;;;28.48;12.40;;;;;;;14.91;100.00;93180.28;5008496;28;20053;-84
2023/10/11 01:14:11;;;;;;;28.92;13.98;;;;;;;14.89;100.00;93179.78;5013755;28;20486;-83
2023/10/11 01:16:37;;;;;;;34.63;15.05;;;;;;;14.88;100.00;93180.88;5004173;28;20433;-83
2023/10/11 01:19:11;;;;;;;32.85;16.20;;;;;;;14.86;100.00;93176.97;5009578;28;20034;-83
2023/10/11 01:21:44;;;;;;;34.33;15.90;;;;;;;14.80;100.00;93172.88;5025257;28;20036;-82
2023/10/11 01:24:10;;;;;;;33.53;17.33;;;;;;;14.82;100.00;93176.00;5002161;28;20405;-82
2023/10/11 01:26:36;;;;;;;32.88;15.25;;;;;;;14.82;100.00;93173.38;5017740;28;20031;-83
2023/10/11 01:29:02;;;;;;;35.40;14.93;;;;;;;14.78;100.00;93176.59;5025930;28;20046;-83
2023/10/11 01:31:33;;;;;;;36.40;15.57;;;;;;;14.80;100.00;93178.16;5010873;28;20088;-83
2023/10/11 01:33:59;;;;;;;38.60;16.35;;;;;;;14.77;100.00;93174.22;5015787;28;20034;-83
2023/10/11 01:36:26;;;;;;;33.00;15.27;;;;;;;14.77;100.00;93172.41;5011615;28;20110;-81
2023/10/11 01:38:52;;;;;;;36.78;15.55;;;;;;;14.76;100.00;93170.81;5013031;28;20520;-83
2023/10/11 01:41:28;;;;;;;35.72;15.90;;;;;;;14.74;100.00;93175.59;5021919;28;20030;-82
2023/10/11 01:43:57;;;;;;;35.05;15.95;;;;;;;14.69;100.00;93161.78;5029337;28;20053;-82
2023/10/11 01:46:26;;;;;;;34.45;15.45;;;;;;;14.73;100.00;93168.00;5027885;28;20065;-82
2023/10/11 01:48:56;;;;;;;41.60;16.40;;;;;;;14.72;100.00;93172.47;5021617;28;20068;-83
2023/10/11 01:51:26;;;;;;;41.75;17.67;;;;;;;14.72;100.00;93167.22;5019252;28;20500;-81
2023/10/11 01:54:04;;;;;;;33.67;17.05;;;;;;;14.73;100.00;93168.00;5024472;28;20044;-80
2023/10/11 01:56:30;;;;;;;40.38;16.77;;;;;;;14.73;100.00;93174.06;5015245;28;20090;-81
2023/10/11 01:58:56;;;;;;;42.38;17.55;;;;;;;14.67;100.00;93154.16;5018757;28;20113;-79
2023/10/11 02:01:25;;;;;;;42.47;18.63;;;;;;;14.67;100.00;93159.41;5023829;28;20069;-81
2023/10/11 02:03:59;;;;;;;41.08;18.40;;;;;;;14.67;100.00;93164.69;5008397;28;20022;-81
2023/10/11 02:06:25;;;;;;;47.47;19.08;;;;;;;14.61;100.00;93154.53;5029308;28;20050;-81
2023/10/11 02:08:51;;;;;;;43.60;18.08;;;;;;;14.63;100.00;93161.06;5007372;28;20034;-82
2023/10/11 02:11:24;;;;;;;43.85;20.08;;;;;;;14.64;100.00;93160.03;5003001;28;20098;-79
2023/10/11 02:13:51;;;;;;;44.88;21.60;;;;;;;14.65;100.00;93163.44;5009015;28;20034;-79
2023/10/11 02:16:16;;;;;;;44.20;23.02;;;;;;;14.61;100.00;93154.53;5014919;28;20025;-80
2023/10/11 02:18:43;;;;;;;47.65;21.27;;;;;;;14.63;100.00;93158.44;5007041;28;20416;-82
2023/10/11 02:21:09;;;;;;;55.60;23.02;;;;;;;14.58;100.00;93143.50;5004304;28;20398;-82
2023/10/11 02:23:39;;;;;;;48.60;23.60;;;;;;;14.63;100.00;93161.06;5011193;28;20036;-82
2023/10/11 02:26:27;;;;;;;50.17;23.40;;;;;;;14.62;100.00;93156.13;5008053;28;20045;-79
2023/10/11 02:28:54;;;;;;;50.53;23.95;;;;;;;14.59;100.00;93154.84;5004591;28;20026;-81
2023/10/11 02:31:20;;;;;;;46.55;23.80;;;;;;;14.57;100.00;93151.72;5006086;28;20109;-82
2023/10/11 02:33:46;;;;;;;46.03;23.77;;;;;;;14.55;100.00;93148.63;5009180;28;20124;-79
2023/10/11 02:36:19;;;;;;;52.33;23.95;;;;;;;14.55;100.00;93156.50;5026293;28;20053;-81
2023/10/11 02:38:50;;;;;;;58.35;24.50;;;;;;;14.58;100.00;93153.28;5003984;28;20038;-82
2023/10/11 02:41:24;;;;;;;50.42;25.13;;;;;;;14.57;100.00;93147.25;5010937;28;20038;-81
2023/10/11 02:43:53;;;;;;;47.90;25.33;;;;;;;14.53;100.00;93148.09;5017353;28;20042;-81
2023/10/11 02:46:25;;;;;;;49.88;25.45;;;;;;;14.52;100.00;93142.06;5016907;28;20042;-79
2023/10/11 02:49:04;;;;;;;51.88;25.23;;;;;;;14.52;100.00;93143.88;5004491;28;20044;-79
2023/10/11 02:51:32;;;;;;;54.08;25.10;;;;;;;14.52;100.00;93143.88;5007936;28;20034;-81
2023/10/11 02:54:04;;;;;;;49.58;25.00;;;;;;;14.49;100.00;93147.13;5008919;28;20068;-81
2023/10/11 02:56:46;;;;;;;46.93;24.60;;;;;;;14.50;100.00;93143.38;5016767;28;20050;-80
2023/10/11 02:59:25;;;;;;;44.97;23.27;;;;;;;14.47;100.00;93141.34;5011069;28;20612;-81
2023/10/11 03:02:05;;;;;;;44.95;23.95;;;;;;;14.44;100.00;93141.94;5018760;28;20129;-80
2023/10/11 03:04:43;;;;;;;45.90;22.17;;;;;;;14.40;100.00;93133.84;5030754;28;20038;-79
2023/10/11 03:07:23;;;;;;;49.85;23.55;;;;;;;14.37;100.00;93137.06;5009378;28;20456;-79
2023/10/11 03:09:50;;;;;;;49.33;23.88;;;;;;;14.34;100.00;93129.75;5018383;28;20068;-83
2023/10/11 03:12:30;;;;;;;55.08;23.10;;;;;;;14.34;100.00;93135.81;5021550;28;20037;-82
2023/10/11 03:14:56;;;;;;;46.67;22.27;;;;;;;14.34;100.00;93135.00;5009120;28;20057;-82
2023/10/11 03:17:22;;;;;;;47.58;22.05;;;;;;;14.31;100.00;93133.75;5010365;28;20440;-78
2023/10/11 03:19:52;;;;;;;43.80;23.13;;;;;;;14.31;100.00;93138.25;5014748;28;20413;-82
2023/10/11 03:22:20;;;;;;;46.30;22.95;;;;;;;14.34;100.00;93138.44;5012631;28;20442;-80
2023/10/11 03:24:53;;;;;;;48.13;23.92;;;;;;;14.32;100.00;93126.63;5014954;28;20038;-82
2023/10/11 03:27:27;;;;;;;50.97;24.00;;;;;;;14.29;100.00;93132.47;5030683;28;20042;-80
2023/10/11 03:29:56;;;;;;;51.47;24.63;;;;;;;14.27;100.00;93134.63;5009701;28;20401;-80
2023/10/11 03:32:25;;;;;;;56.70;24.98;;;;;;;14.25;100.00;93132.31;5007938;28;20148;-82
2023/10/11 03:34:50;;;;;;;49.35;24.40;;;;;;;14.25;100.00;93134.13;4994235;28;20053;-81
2023/10/11 03:37:18;;;;;;;51.40;23.98;;;;;;;14.23;100.00;93129.19;5002349;28;20342;-80
2023/10/11 03:39:50;;;;;;;49.50;23.90;;;;;;;14.25;100.00;93136.78;5007369;28;20047;-81
2023/10/11 03:42:17;;;;;;;48.50;23.95;;;;;;;14.26;100.00;93141.75;5013038;28;20412;-82
2023/10/11 03:44:46;;;;;;;47.03;24.25;;;;;;;14.26;100.00;93143.63;5019428;28;20033;-82
2023/10/11 03:47:24;;;;;;;49.75;26.38;;;;;;;14.22;100.00;93148.66;5005932;28;20031;-82
2023/10/11 03:49:51;;;;;;;55.88;25.73;;;;;;;14.14;100.00;93136.19;5004938;28;20038;-83
2023/10/11 03:52:25;;;;;;;54.72;24.75;;;;;;;14.17;100.00;93138.25;5011025;28;20370;-83
2023/10/11 03:57:34;;;;;;;54.60;26.67;;;;;;;14.25;100.00;93142.03;5015575;28;20038;-82
2023/10/11 04:00:00;;;;;;;60.22;26.35;;;;;;;14.21;100.00;93141.84;5005991;28;20052;-82
2023/10/11 04:02:26;;;;;;;58.00;28.15;;;;;;;14.20;100.00;93131.59;5003433;28;20057;-82
2023/10/11 04:04:52;;;;;;;50.08;27.65;;;;;;;14.22;100.00;93138.13;5008301;28;20038;-81
2023/10/11 04:07:21;;;;;;;54.40;28.10;;;;;;;14.22;100.00;93143.41;5013691;28;20060;-81
2023/10/11 04:09:47;;;;;;;53.13;27.50;;;;;;;14.18;100.00;93142.41;5003576;28;20037;-81
2023/10/11 04:12:12;;;;;;;53.28;26.75;;;;;;;14.19;100.00;93141.38;5009816;28;20076;-82
2023/10/11 04:14:42;;;;;;;53.80;26.95;;;;;;;14.22;100.00;93147.91;5007715;28;20042;-83
2023/10/11 04:19:53;;;;;;;58.67;26.95;;;;;;;14.21;100.00;93144.50;5004725;28;20038;-85
2023/10/11 04:22:25;;;;;;;55.13;27.52;;;;;;;14.19;100.00;93144.00;5012920;28;20042;-82
2023/10/11 04:24:54;;;;;;;;;;;;;;;14.18;100.00;93142.41;5000421;28;20038;-83
2023/10/11 04:29:50;;;;;;;51.58;26.92;;;;;;;14.15;100.00;93143.00;5019137;28;20088;-81
2023/10/11 04:32:41;;;;;;;58.35;27.50;;;;;;;14.15;100.00;93143.78;5005041;28;20112;-83
2023/10/11 04:35:21;;;;;;;62.25;27.05;;;;;;;14.12;100.00;93143.59;5003155;28;20044;-82
2023/10/11 04:38:11;;;;;;;59.70;28.83;;;;;;;14.14;100.00;93142.25;5008508;28;20116;-82
2023/10/11 04:40:41;;;;;;;53.17;27.50;;;;;;;14.14;100.00;93146.72;5010271;28;20514;-82
2023/10/11 04:43:20;;;;;;;63.03;27.80;;;;;;;14.11;100.00;93149.94;5008088;28;20104;-84
2023/10/11 04:45:50;;;;;;;53.03;25.90;;;;;;;14.05;100.00;93144.00;5025984;28;20157;-82
2023/10/11 04:48:29;;;;;;;62.90;26.90;;;;;;;14.08;100.00;93147.88;5013782;28;20046;-81
2023/10/11 04:51:07;;;;;;;53.97;26.30;;;;;;;14.09;100.00;93154.69;5006238;28;20121;-81
2023/10/11 04:53:54;;;;;;;70.60;27.95;;;;;;;14.06;100.00;93152.66;5007963;28;20052;-81
2023/10/11 04:59:06;;;;;;;47.80;23.92;;;;;;;14.03;100.00;93145.34;5005857;28;20054;-83
2023/10/11 05:04:15;;;;;;;51.45;26.95;;;;;;;13.99;100.00;93154.91;5007915;28;20046;-81
2023/10/11 05:06:44;;;;;;;48.75;25.40;;;;;;;13.98;100.00;93156.72;5015739;28;20033;-82
2023/10/11 05:11:50;;;;;;;54.08;24.45;;;;;;;13.90;100.00;93146.88;5025824;28;20040;-83
2023/10/11 05:14:29;;;;;;;53.65;24.70;;;;;;;13.93;100.00;93154.97;5029374;28;20034;-84
2023/10/11 05:16:59;;;;;;;45.33;23.02;;;;;;;13.93;100.00;93156.81;5011496;28;20038;-85
2023/10/11 05:19:27;;;;;;;49.85;23.25;;;;;;;13.88;100.00;93155.06;5017280;28;20022;-85
2023/10/11 05:21:55;;;;;;;54.55;26.15;;;;;;;13.84;100.00;93155.94;5022938;28;20030;-84
2023/10/11 05:24:33;;;;;;;51.67;26.00;;;;;;;13.83;100.00;93164.91;5020810;28;20109;-83
2023/10/11 05:27:12;;;;;;;51.47;24.52;;;;;;;13.81;100.00;93164.41;5012584;28;20048;-83
2023/10/11 05:30:06;;;;;;;52.30;25.75;;;;;;;13.79;100.00;93164.69;5008817;28;20038;-77
2023/10/11 05:32:32;;;;;;;49.30;24.98;;;;;;;13.78;100.00;93168.41;4987941;28;20049;-78
2023/10/11 05:51:27;;;;;;;52.25;25.35;;;;;;;13.92;100.00;93185.00;5001703;28;20489;-78
2023/10/11 05:53:56;;;;;;;56.10;27.10;;;;;;;14.09;100.00;93188.94;5007611;28;20031;-79
2023/10/11 05:56:22;;;;;;;50.92;26.60;;;;;;;14.24;100.00;93183.41;5003185;28;20049;-78
2023/10/11 05:58:53;;;;;;;49.45;26.00;;;;;;;14.47;100.00;93192.19;4998989;28;20065;-79
2023/10/11 06:01:21;;;;;;;52.42;25.10;;;;;;;14.70;100.00;93193.09;5000663;28;20158;-79
2023/10/11 06:03:55;;;;;;;51.15;25.38;;;;;;;15.00;100.00;93188.28;5003572;28;20026;-78
2023/10/11 06:09:16;;;;;;;45.00;22.65;;;;;;;15.58;100.00;93197.28;5002661;28;20689;-78
2023/10/11 06:11:47;;;;;;;49.92;22.50;;;;;;;15.88;100.00;93195.81;4999175;28;20168;-78
2023/10/11 06:14:17;;;;;;;38.33;20.75;;;;;;;16.24;100.00;93197.56;5015228;28;20064;-80
2023/10/11 06:16:57;;;;;;;42.97;20.55;;;;;;;16.53;100.00;93204.25;5000176;28;20049;-78
2023/10/11 06:19:26;;;;;;;38.75;18.52;;;;;;;16.90;100.00;93202.19;5001909;28;20034;-78
2023/10/11 06:21:57;;;;;;;37.08;17.95;;;;;;;17.33;100.00;93204.13;5004160;28;20173;-77
2023/10/11 06:24:30;;;;;;;30.80;17.58;;;;;;;17.81;100.00;93205.84;5009835;28;20091;-78
2023/10/11 06:27:11;;;;;;;35.25;17.88;;;;;;;18.22;100.00;93209.88;5007811;28;20080;-78
2023/10/11 06:29:45;;;;;;;35.60;15.90;;;;;;;18.73;100.00;93205.47;4998935;28;20029;-78
2023/10/11 06:32:12;;;;;;;30.25;15.75;;;;;;;19.17;100.00;93213.25;4997462;28;20038;-78
2023/10/11 08:52:04;;;;;;;30.15;11.60;;;;;;;21.16;100.00;93231.84;5607758;22;15104028;-95
2023/10/11 08:54:35;;;;;;;24.30;10.63;;;;;;;21.35;100.00;93241.16;6287332;22;20068;-95
2023/10/11 08:57:14;;;;;;;;;;;;;;;;;;;;;
2023/10/11 08:59:56;;;;;;;23.88;9.95;;;;;;;20.99;100.00;93245.38;6313673;22;20034;-94
2023/10/11 09:02:39;;;;;;;29.08;11.95;;;;;;;21.13;100.00;93245.81;6290801;22;20015;-96
2023/10/11 09:05:58;;;;;;;;;;;;;;;;;;;;;
2023/10/11 09:08:39;;;;;;;21.20;8.15;;;;;;;21.07;100.00;93241.06;6316659;22;20135;-95
2023/10/11 09:11:39;;;;;;;17.45;6.25;;;;;;;21.06;100.00;93239.50;6313611;22;20004;-96
2023/10/11 09:14:22;;;;;;;17.98;6.95;;;;;;;20.79;100.00;93228.41;6288145;22;20015;-94
2023/10/11 09:17:06;;;;;;;25.05;8.35;;;;;;;21.32;100.00;93242.59;6286152;22;20433;-93
2023/10/11 09:19:53;;;;;;;18.42;7.75;;;;;;;21.56;100.00;93231.16;6313881;22;20007;-92
2023/10/11 09:22:28;;;;;;;19.42;7.68;;;;;;;21.78;100.00;93229.88;6290096;22;20021;-93
2023/10/11 09:25:21;;;;;;;26.38;9.32;;;;;;;21.69;100.00;93217.81;6313872;22;20018;-92
2023/10/11 09:27:51;;;;;;;18.95;6.82;;;;;;;21.48;100.00;93213.44;6314162;22;20003;-94
2023/10/11 09:30:21;;;;;;;20.13;8.75;;;;;;;21.46;100.00;93222.84;6314945;22;20337;-93
2023/10/11 09:32:59;;;;;;;28.75;12.48;;;;;;;21.28;100.00;93223.09;6314365;22;20102;-93
2023/10/11 09:35:28;;;;;;;30.52;11.70;;;;;;;21.19;100.00;93217.09;6313467;22;20017;-92
2023/10/11 09:37:57;;;;;;;27.30;11.95;;;;;;;21.59;100.00;93208.38;6313517;22;20180;-93
2023/10/11 09:40:27;;;;;;;26.70;9.35;;;;;;;21.56;100.00;93206.41;6312666;22;20352;-92
2023/10/11 09:42:56;;;;;;;22.48;10.80;;;;;;;21.57;100.00;93210.59;6286555;22;20068;-94
2023/10/11 09:45:28;;;;;;;23.58;11.07;;;;;;;21.69;100.00;93215.91;6286899;22;20050;-92
2023/10/11 09:47:55;;;;;;;20.85;10.85;;;;;;;21.82;100.00;93230.00;6312488;22;20054;-91
2023/10/11 09:50:23;;;;;;;24.40;12.00;;;;;;;21.58;100.00;93233.50;6286288;22;20044;-93
2023/10/11 09:52:55;;;;;;;27.85;13.43;;;;;;;21.35;100.00;93244.59;6305984;22;20425;-93
2023/10/11 09:55:31;;;;;;;24.33;12.38;;;;;;;21.55;100.00;93220.84;6280301;22;20011;-92
2023/10/11 09:58:19;;;;;;;27.40;12.70;;;;;;;21.78;100.00;93221.88;6305591;22;20023;-93
2023/10/11 10:01:11;;;;;;;27.67;11.38;;;;;;;21.99;100.00;93253.69;6305659;22;20046;-93
2023/10/11 10:03:45;;;;;;;30.83;15.40;;;;;;;21.74;100.00;93242.31;6224734;22;20011;-92
2023/10/11 10:06:26;;;;;;;21.75;10.63;;;;;;;21.83;100.00;93224.31;6305937;22;20019;-93
2023/10/11 10:09:16;;;;;;;31.92;14.88;;;;;;;21.87;100.00;93261.72;6305483;22;20398;-92
2023/10/11 10:12:06;;;;;;;32.10;14.38;;;;;;;21.85;100.00;93260.50;6305641;22;20022;-93
2023/10/11 10:14:36;;;;;;;32.72;14.93;;;;;;;21.46;100.00;93252.13;6279867;22;20207;-93
2023/10/11 10:17:12;;;;;;;24.40;10.48;;;;;;;21.52;100.00;93256.91;6305541;22;20018;-92
2023/10/11 10:19:45;;;;;;;32.83;14.52;;;;;;;21.76;100.00;93244.66;6305827;22;20329;-92
2023/10/11 10:22:16;;;;;;;18.88;10.23;;;;;;;21.88;100.00;93231.28;6305167;22;20389;-93
2023/10/11 10:24:48;;;;;;;28.42;13.00;;;;;;;21.77;100.00;93246.19;6305318;22;20508;-92
2023/10/11 10:27:33;;;;;;;24.45;11.43;;;;;;;21.71;100.00;93256.31;6305599;22;20018;-91
2023/10/11 10:30:05;;;;;;;26.92;12.30;;;;;;;21.35;100.00;93225.94;6279776;22;20033;-92
2023/10/11 10:32:32;;;;;;;20.23;10.35;;;;;;;21.42;100.00;93220.88;6305575;22;20011;-92
2023/10/11 10:35:24;;;;;;;21.17;10.63;;;;;;;21.49;100.00;93244.25;6279899;22;20015;-92
2023/10/11 10:37:59;;;;;;;19.00;10.68;;;;;;;21.69;100.00;93250.56;6279128;22;20017;-92
2023/10/11 10:40:29;;;;;;;27.42;12.88;;;;;;;21.78;100.00;93226.44;6305607;22;20022;-92
2023/10/11 10:43:27;;;;;;;28.15;15.00;;;;;;;21.85;100.00;93247.97;6305232;22;20019;-93
2023/10/11 10:45:59;;;;;;;19.13;10.07;;;;;;;21.61;100.00;93224.81;6280084;22;20432;-92
2023/10/11 10:48:31;;;;;;;26.83;13.52;;;;;;;21.89;100.00;93229.41;6305632;22;20479;-93
2023/10/11 10:51:13;;;;;;;28.08;14.35;;;;;;;21.94;100.00;93235.25;6280373;22;20307;-92
2023/10/11 10:56:29;;;;;;;36.45;17.38;;;;;;;21.56;100.00;93230.38;6278319;22;20057;-92
2023/10/11 10:59:11;;;;;;;34.22;17.70;;;;;;;21.43;100.00;93248.25;6279146;22;20043;-91
2023/10/11 11:01:44;;;;;;;31.48;17.00;;;;;;;21.25;100.00;93225.63;6279408;22;20476;-93
2023/10/11 11:04:14;;;;;;;33.03;16.45;;;;;;;21.16;100.00;93213.19;6284730;22;20016;-92
2023/10/11 11:06:45;;;;;;;33.42;18.25;;;;;;;21.53;100.00;93233.72;6303237;22;20437;-92
2023/10/11 11:09:15;;;;;;;34.80;18.60;;;;;;;20.98;100.00;93228.66;6298347;22;20046;-92
2023/10/11 11:11:46;;;;;;;36.78;17.30;;;;;;;21.06;100.00;93196.94;6325296;22;20011;-92
2023/10/11 11:14:13;;;;;;;32.20;17.45;;;;;;;21.59;100.00;93203.06;6294358;22;20011;-92
2023/10/11 11:16:42;;;;;;;31.02;16.58;;;;;;;21.56;100.00;93199.19;6253591;22;20098;-92
2023/10/11 11:19:16;;;;;;;36.72;17.40;;;;;;;21.93;100.00;93216.94;6306089;22;20007;-92
2023/10/11 11:21:46;;;;;;;33.08;17.73;;;;;;;21.76;100.00;93200.13;6281121;22;20060;-92
2023/10/11 11:24:27;;;;;;;32.95;15.15;;;;;;;21.59;100.00;93214.50;6333749;22;20007;-93
2023/10/11 11:26:58;;;;;;;26.73;16.35;;;;;;;21.51;100.00;93188.00;6307723;22;20018;-93
2023/10/11 11:29:33;;;;;;;33.50;17.10;;;;;;;21.31;100.00;93195.00;6333798;22;20034;-93
2023/10/11 11:32:17;;;;;;;34.72;17.48;;;;;;;21.40;100.00;93180.47;6308048;22;20003;-93
2023/10/11 11:35:10;;;;;;;35.60;17.63;;;;;;;21.55;100.00;93181.66;6333371;22;20035;-93
2023/10/11 11:37:39;;;;;;;41.22;18.77;;;;;;;21.40;100.00;93180.47;6331612;22;20427;-93
2023/10/11 11:40:19;;;;;;;31.38;18.77;;;;;;;21.32;100.00;93196.53;6279452;22;20513;-92
2023/10/11 11:42:47;;;;;;;28.58;17.52;;;;;;;21.28;100.00;93167.16;6333812;22;20144;-92
2023/10/11 11:45:17;;;;;;;30.33;16.17;;;;;;;21.62;100.00;93187.19;6333380;22;20027;-93
2023/10/11 11:48:05;;;;;;;28.00;14.52;;;;;;;21.94;100.00;93167.88;6326892;22;20452;-92
2023/10/11 11:50:33;;;;;;;29.83;15.73;;;;;;;22.16;100.00;93179.88;6303401;22;20026;-93
2023/10/11 11:53:03;;;;;;;31.05;17.02;;;;;;;22.26;100.00;93170.63;6278869;22;20026;-93
2023/10/11 11:55:29;;;;;;;31.13;16.85;;;;;;;22.11;100.00;93172.09;6304535;22;20022;-93
2023/10/11 11:57:56;;;;;;;35.28;16.83;;;;;;;21.87;100.00;93162.34;6278333;22;20318;-93
2023/10/11 12:02:58;;;;;;;33.42;16.90;;;;;;;22.16;100.00;93169.97;6305851;22;20007;-93
2023/10/11 12:05:27;;;;;;;25.25;15.32;;;;;;;22.17;100.00;93158.19;6278161;22;20392;-93
2023/10/11 12:07:57;;;;;;;27.52;14.80;;;;;;;22.28;100.00;93171.06;6304618;22;19999;-93
2023/10/11 12:10:29;;;;;;;25.65;15.30;;;;;;;22.02;100.00;93151.72;6279075;22;20019;-92
2023/10/11 12:13:05;;;;;;;27.77;15.02;;;;;;;22.22;100.00;93155.31;6279029;22;20019;-92
2023/10/11 12:15:32;;;;;;;24.08;13.50;;;;;;;22.31;100.00;93162.34;6304135;22;20422;-92
2023/10/11 12:18:00;;;;;;;20.98;13.13;;;;;;;22.23;100.00;93183.50;6304047;22;20003;-93
2023/10/11 12:20:33;;;;;;;32.63;15.07;;;;;;;22.17;100.00;93168.84;6278394;22;20015;-93
2023/10/11 12:23:11;;;;;;;29.38;14.93;;;;;;;22.10;100.00;93157.25;6278192;22;20463;-92
2023/10/11 12:25:38;;;;;;;29.02;14.23;;;;;;;22.00;100.00;93147.84;6278692;22;20326;-94
2023/10/11 12:28:07;;;;;;;34.85;14.40;;;;;;;21.81;100.00;93151.91;6278172;22;20439;-93
2023/10/11 12:30:36;;;;;;;22.40;13.43;;;;;;;21.92;100.00;93144.22;6303902;22;20060;-93
2023/10/11 12:33:11;;;;;;;26.30;13.02;;;;;;;22.05;100.00;93131.59;6278674;22;20003;-93
2023/10/11 12:35:43;;;;;;;23.70;13.50;;;;;;;22.08;100.00;93138.91;6278385;22;20034;-93
2023/10/11 12:38:12;;;;;;;23.67;13.48;;;;;;;22.05;100.00;93152.94;6305781;22;20086;-94
2023/10/11 12:40:44;;;;;;;25.20;13.73;;;;;;;22.01;100.00;93149.38;6278174;22;20018;-93
2023/10/11 12:43:10;;;;;;;28.80;13.50;;;;;;;22.12;100.00;93150.44;6304543;22;20057;-93
2023/10/11 12:45:45;;;;;;;27.15;13.73;;;;;;;21.88;100.00;93139.91;6304072;22;20014;-93
2023/10/11 12:48:15;;;;;;;30.08;15.10;;;;;;;22.20;100.00;93136.19;6303847;22;20426;-93
2023/10/11 12:50:44;;;;;;;27.42;13.63;;;;;;;22.04;100.00;93138.03;6302723;22;20038;-92
2023/10/11 12:53:12;;;;;;;22.50;13.43;;;;;;;22.13;100.00;93143.97;6276862;22;20650;-92
2023/10/11 12:55:41;;;;;;;26.13;14.30;;;;;;;22.03;100.00;93115.19;6277505;22;20018;-95
2023/10/11 12:58:12;;;;;;;29.38;13.27;;;;;;;22.12;100.00;93104.34;6304138;22;20397;-92
2023/10/11 13:00:49;;;;;;;26.05;13.05;;;;;;;21.85;100.00;93108.63;6304404;22;20492;-94
2023/10/11 13:03:29;;;;;;;21.75;11.32;;;;;;;21.96;100.00;93126.44;6303637;22;20462;-93
2023/10/11 13:05:56;;;;;;;23.25;11.35;;;;;;;21.79;100.00;93122.16;6278037;22;20015;-96
2023/10/11 13:08:41;;;;;;;22.85;12.38;;;;;;;21.54;100.00;93097.53;6278885;22;20007;-95
2023/10/11 13:11:11;;;;;;;25.80;12.07;;;;;;;21.80;100.00;93101.66;6279319;22;20085;-94
2023/10/11 13:13:44;;;;;;;20.25;11.73;;;;;;;21.78;100.00;93093.97;6304831;22;20007;-94
2023/10/11 13:16:26;;;;;;;26.95;12.55;;;;;;;21.70;100.00;93094.13;6278704;22;20095;-93
2023/10/11 13:18:52;;;;;;;22.23;11.77;;;;;;;21.72;100.00;93095.34;6277424;22;20068;-93
2023/10/11 13:21:20;;;;;;;21.40;11.88;;;;;;;21.95;100.00;93108.91;6277706;22;20011;-92
2023/10/11 13:23:48;;;;;;;21.90;12.05;;;;;;;21.79;100.00;93100.09;6277283;22;20038;-95
2023/10/11 13:26:18;;;;;;;28.33;12.23;;;;;;;21.91;100.00;93108.03;6303435;22;20022;-93
2023/10/11 13:28:48;;;;;;;24.88;12.43;;;;;;;21.58;100.00;93084.31;6305715;22;20008;-93
2023/10/11 13:31:17;;;;;;;22.80;11.35;;;;;;;21.84;100.00;93102.50;6306018;22;20088;-93
2023/10/11 13:33:43;;;;;;;26.58;11.95;;;;;;;21.73;100.00;93096.09;6279831;22;20052;-93
2023/10/11 13:36:14;;;;;;;27.45;12.57;;;;;;;21.77;100.00;93091.66;6279838;22;20054;-94
2023/10/11 13:38:45;;;;;;;28.73;12.40;;;;;;;21.94;100.00;93075.34;6305669;22;20015;-93
2023/10/11 13:41:13;;;;;;;23.85;12.90;;;;;;;21.90;100.00;93079.03;6305951;22;20094;-93
2023/10/11 13:43:44;;;;;;;21.92;11.77;;;;;;;21.82;100.00;93067.44;6307350;22;20003;-93
2023/10/11 13:46:13;;;;;;;20.40;11.43;;;;;;;22.07;100.00;93084.06;6305515;22;20030;-94
2023/10/11 13:48:46;;;;;;;20.55;11.48;;;;;;;22.12;100.00;93091.78;6280360;22;20019;-94
2023/10/11 13:51:17;;;;;;;;;;;;;;;22.27;100.00;93102.81;6305274;22;20064;-94
2023/10/11 13:53:46;;;;;;;23.48;12.50;;;;;;;21.90;100.00;93069.16;6278657;22;19911;-93
2023/10/11 13:56:21;;;;;;;22.25;11.05;;;;;;;21.90;100.00;93079.03;6302503;22;20063;-93
2023/10/11 13:58:51;;;;;;;21.20;11.85;;;;;;;21.90;100.00;93076.38;6279178;22;20003;-92
2023/10/11 14:02:32;;;;;;;22.38;11.63;;;;;;;21.74;100.00;93069.13;6304463;22;20077;-92
2023/10/11 14:04:51;;;;;;;25.65;12.63;;;;;;;21.71;100.00;93058.41;6275007;22;20431;-93
2023/10/11 14:07:37;;;;;;;23.20;11.63;;;;;;;21.85;100.00;93073.97;6285297;22;20042;-93
2023/10/11 14:10:48;;;;;;;20.35;11.43;;;;;;;21.81;100.00;93069.31;6254531;22;20057;-95
2023/10/11 14:13:24;;;;;;;22.00;11.48;;;;;;;21.69;100.00;93048.06;6283454;22;20013;-93
2023/10/11 14:16:04;;;;;;;17.15;10.35;;;;;;;22.04;100.00;93058.88;6278794;22;20015;-92
2023/10/11 14:18:31;;;;;;;22.40;11.10;;;;;;;21.97;100.00;93065.88;6303957;22;20014;-94
2023/10/11 14:21:36;;;;;;;21.35;10.27;;;;;;;21.73;100.00;93051.63;6304119;22;20003;-94
2023/10/11 14:24:38;;;;;;;19.20;10.45;;;;;;;21.76;100.00;93045.59;6299984;22;20015;-92
2023/10/11 14:28:03;;;;;;;19.35;10.38;;;;;;;21.81;100.00;93055.22;6279163;22;20019;-93
2023/10/11 14:31:23;;;;;;;22.30;11.18;;;;;;;22.00;100.00;93041.25;6305204;22;20360;-93
2023/10/11 14:34:27;;;;;;;;;;;;;;;;;;;;;
2023/10/11 14:37:52;;;;;;;20.15;11.00;;;;;;;21.56;100.00;93043.94;6284522;22;20445;-93
2023/10/11 14:50:29;;;;;;;18.30;10.27;;;;;;;22.03;100.00;93045.88;6264724;22;20034;-91
2023/10/11 14:53:18;;;;;;;22.23;9.98;;;;;;;22.01;100.00;93037.44;6223474;22;20099;-92
2023/10/11 14:55:56;;;;;;;;;;;;;;;;;;;;;